Portada
METAR-TAF:

METAR-TAF

Aeropuertos :

Béziers, Francia

latitud: 43-19N, longitud: 003-21E, altitud: 17 m

Observación

El informe se hizo hace 28 minutos, a las 15:30 UTC
Viento 2 kt con dirección variable
Temperatura 9°C
Humedad 46%
Presión 1008 hPa
Visibilidad 10 km o más
sin nubes por debajo de 1500 m y sin presencia de cumulonimbus.

METAR: LFMU 241530Z AUTO VRB02KT CAVOK 09/M02 Q1008 NOSIG

Hora: 16:58 (15:58 UTC)

Pronóstico

El informe se hizo hace 1 hora y 58 minutos, a las 14:00 UTC
Pronóstico válido del 24 a las 15 UTC al 25 a las 15 UTC
Viento 3 kt con dirección variable
Visibilidad 10 km o más
sin nubes por debajo de 1500 m y sin presencia de cumulonimbus.
Probabilidad 30% :
Temporalmente
del 24 a las 15 UTC al 24 a las 20 UTC
Cielo nuboso a una altura de 2000 ft
lluvia ligera

TAF: LFMU 241400Z 2415/2515 VRB03KT CAVOK PROB30 TEMPO 2415/2420 -RA BKN020

Observaciones y pronósticos meteorológicos de más de 4000 aeropuertos (mensajes METAR y TAF).

Los puntos amarillos y rojos representan las estaciones disponibles.

Ponga el ratón en el punto deseado para ver el nombre de la estación.

Haga clic para ver las observaciones y los pronósticos meteorológicos.

Para cambiar el mapa : haga clic en los botones verdes con una cruz de color negro para hacer un zoom, en el botón verde con un guión para alejar o en las flechas verdes para mapas adyacentes.


METAR-TAF: